Time;durP1;ratioP1;P1;durP2;ratioP2;P2;SDS_P1;SDS_P2;PMS_P1;PMS_P2;Temp;Humidity;BMP_temperature;BMP_pressure;BME280_temperature;BME280_humidity;BME280_pressure;Samples;Min_cycle;Max_cycle;Signal;HPM_P1;HPM_P2
2022/01/24 00:01:53;;;;;;;6.43;5.00;;;;;;;;;;5052848;28;20581;-81
2022/01/24 00:04:21;;;;;;;7.17;5.30;;;;;;;;;;5053209;28;20484;-81
2022/01/24 00:06:50;;;;;;;8.43;5.37;;;;;;;;;;5053749;28;20518;-81
2022/01/24 00:09:17;;;;;;;7.10;5.47;;;;;;;;;;5053190;28;20444;-81
2022/01/24 00:12:04;;;;;;;6.83;5.47;;;;;;;;;;5053070;28;20446;-81
2022/01/24 00:17:29;;;;;;;6.53;5.77;;;;;;;;;;5053465;28;20404;-81
2022/01/24 00:28:27;;;;;;;7.47;5.70;;;;;;;;;;5052991;28;20538;-81
2022/01/24 00:30:56;;;;;;;6.93;5.37;;;;;;;;;;5053137;28;20514;-81
2022/01/24 00:33:24;;;;;;;8.23;5.63;;;;;;;;;;5052790;28;20440;-81
2022/01/24 00:35:51;;;;;;;6.50;5.33;;;;;;;;;;5053054;28;20451;-81
2022/01/24 00:38:26;;;;;;;8.27;5.83;;;;;;;;;;5052754;28;20444;-81
2022/01/24 00:40:53;;;;;;;6.93;5.77;;;;;;;;;;5052922;28;20939;-81
2022/01/24 00:43:28;;;;;;;5.73;5.00;;;;;;;;;;5053346;28;20479;-81
2022/01/24 00:46:01;;;;;;;8.67;5.00;;;;;;;;;;5053002;28;20785;-81
2022/01/24 00:48:51;;;;;;;7.13;5.40;;;;;;;;;;5052632;28;20435;-81
2022/01/24 00:56:51;;;;;;;7.00;5.83;;;;;;;;;;5051920;28;20867;-81
2022/01/24 00:59:18;;;;;;;8.37;5.63;;;;;;;;;;5052484;28;20447;-81
2022/01/24 01:01:48;;;;;;;7.67;6.00;;;;;;;;;;5052212;28;20480;-81
2022/01/24 01:04:16;;;;;;;5.80;4.47;;;;;;;;;;5052149;28;20490;-81
2022/01/24 01:06:45;;;;;;;5.50;4.80;;;;;;;;;;5052205;28;20459;-81
2022/01/24 01:20:15;;;;;;;4.57;4.13;;;;;;;;;;5052003;28;20951;-81
2022/01/24 01:22:42;;;;;;;4.20;3.60;;;;;;;;;;5051997;28;20519;-81
2022/01/24 01:25:12;;;;;;;6.90;4.80;;;;;;;;;;5051748;28;21038;-81
2022/01/24 01:27:42;;;;;;;4.40;4.00;;;;;;;;;;5052069;28;20539;-81
2022/01/24 01:30:17;;;;;;;4.40;3.80;;;;;;;;;;5051920;28;20498;-81
2022/01/24 01:32:56;;;;;;;4.43;3.87;;;;;;;;;;5051792;28;20459;-83
2022/01/24 01:35:39;;;;;;;5.67;4.07;;;;;;;;;;5051861;28;20433;-81
2022/01/24 01:38:35;;;;;;;4.13;3.70;;;;;;;;;;5051786;28;20439;-81
2022/01/24 01:55:07;;;;;;;4.13;3.73;;;;;;;;;;5052309;28;20484;-81
2022/01/24 01:57:37;;;;;;;4.90;4.50;;;;;;;;;;5051682;28;20876;-81
2022/01/24 02:00:07;;;;;;;4.50;3.87;;;;;;;;;;5051232;28;20472;-81
2022/01/24 02:02:34;;;;;;;5.80;4.83;;;;;;;;;;5051996;28;20437;-81
2022/01/24 02:05:05;;;;;;;6.20;3.93;;;;;;;;;;5051530;28;21111;-81
2022/01/24 02:07:35;;;;;;;4.90;4.03;;;;;;;;;;5051364;28;20444;-81
2022/01/24 02:10:02;;;;;;;6.27;4.40;;;;;;;;;;5051507;28;20456;-81
2022/01/24 02:12:32;;;;;;;5.47;4.60;;;;;;;;;;5055677;28;20558;-81
2022/01/24 02:15:04;;;;;;;4.83;4.33;;;;;;;;;;5055367;28;20458;-81
2022/01/24 02:17:42;;;;;;;9.73;4.97;;;;;;;;;;5055446;28;20543;-81
2022/01/24 02:20:27;;;;;;;8.00;5.50;;;;;;;;;;5055646;28;20439;-81
2022/01/24 02:23:17;;;;;;;6.93;5.50;;;;;;;;;;5055507;28;20491;-81
2022/01/24 02:25:45;;;;;;;6.07;5.37;;;;;;;;;;5055382;28;20522;-81
2022/01/24 02:28:13;;;;;;;5.20;4.27;;;;;;;;;;5055422;28;20448;-81
2022/01/24 02:30:53;;;;;;;6.30;5.03;;;;;;;;;;5055360;28;20448;-81
2022/01/24 02:33:21;;;;;;;6.17;4.50;;;;;;;;;;5054769;28;20451;-81
2022/01/24 02:35:48;;;;;;;4.50;3.90;;;;;;;;;;5055394;28;20547;-82
2022/01/24 02:38:33;;;;;;;8.10;4.83;;;;;;;;;;5055050;28;20440;-81
2022/01/24 02:49:15;;;;;;;5.73;4.40;;;;;;;;;;5055083;28;20496;-82
2022/01/24 02:52:02;;;;;;;6.77;4.80;;;;;;;;;;5054727;28;20490;-82
2022/01/24 02:54:34;;;;;;;5.10;4.57;;;;;;;;;;5054722;28;20429;-81
2022/01/24 02:57:01;;;;;;;6.60;4.97;;;;;;;;;;5054516;28;20440;-81
2022/01/24 02:59:29;;;;;;;6.83;4.40;;;;;;;;;;5054725;28;20479;-82
2022/01/24 03:01:57;;;;;;;5.23;4.47;;;;;;;;;;5054346;28;20475;-81
2022/01/24 03:04:33;;;;;;;5.70;4.57;;;;;;;;;;5055002;28;20857;-81
2022/01/24 03:07:01;;;;;;;6.10;5.50;;;;;;;;;;5054693;28;20439;-82
2022/01/24 03:09:28;;;;;;;5.20;4.53;;;;;;;;;;5054349;28;20487;-81
2022/01/24 03:12:08;;;;;;;5.77;5.00;;;;;;;;;;5054575;28;20443;-82
2022/01/24 03:14:45;;;;;;;5.63;4.13;;;;;;;;;;5054410;28;20433;-81
2022/01/24 03:17:12;;;;;;;4.97;4.13;;;;;;;;;;5054223;28;21044;-81
2022/01/24 03:19:39;;;;;;;5.80;5.17;;;;;;;;;;5054179;28;20535;-82
2022/01/24 03:22:09;;;;;;;6.63;4.73;;;;;;;;;;5052995;28;20910;-81
2022/01/24 03:24:39;;;;;;;5.70;4.97;;;;;;;;;;5053870;28;20484;-81
2022/01/24 03:27:07;;;;;;;5.23;4.60;;;;;;;;;;5054343;28;20448;-81
2022/01/24 03:29:34;;;;;;;5.60;4.53;;;;;;;;;;5053874;28;20444;-81
2022/01/24 03:32:02;;;;;;;6.23;5.40;;;;;;;;;;5054122;28;20446;-81
2022/01/24 03:34:32;;;;;;;6.20;4.57;;;;;;;;;;5053890;28;20444;-81
2022/01/24 03:36:59;;;;;;;5.03;4.40;;;;;;;;;;5054146;28;20444;-81
2022/01/24 03:39:26;;;;;;;5.80;4.50;;;;;;;;;;5054096;28;20447;-81
2022/01/24 03:41:53;;;;;;;6.07;5.03;;;;;;;;;;5053701;28;20451;-81
2022/01/24 03:44:23;;;;;;;6.17;4.73;;;;;;;;;;5053669;28;21064;-80
2022/01/24 03:47:12;;;;;;;7.17;5.33;;;;;;;;;;5053670;28;20440;-81
2022/01/24 03:49:48;;;;;;;10.40;5.57;;;;;;;;;;5053673;28;20431;-81
2022/01/24 03:52:16;;;;;;;6.27;4.37;;;;;;;;;;5053570;28;20921;-81
2022/01/24 03:54:43;;;;;;;7.23;5.03;;;;;;;;;;5053491;28;20440;-81
2022/01/24 03:57:11;;;;;;;8.27;5.23;;;;;;;;;;5053395;28;20436;-81
2022/01/24 03:59:40;;;;;;;4.60;3.90;;;;;;;;;;5053319;28;20454;-81
2022/01/24 04:02:07;;;;;;;4.87;4.37;;;;;;;;;;5053462;28;20459;-81
2022/01/24 04:04:35;;;;;;;7.27;5.37;;;;;;;;;;5053189;28;20486;-81
2022/01/24 04:07:02;;;;;;;6.23;5.43;;;;;;;;;;5053352;28;20444;-81
2022/01/24 04:09:36;;;;;;;5.73;4.83;;;;;;;;;;5053232;28;20968;-81
2022/01/24 04:12:04;;;;;;;10.33;7.10;;;;;;;;;;5053108;28;20824;-81
2022/01/24 04:14:38;;;;;;;5.47;4.97;;;;;;;;;;5053150;28;20445;-81
2022/01/24 04:17:22;;;;;;;8.57;6.07;;;;;;;;;;5053176;28;20459;-81
2022/01/24 04:22:46;;;;;;;6.00;5.40;;;;;;;;;;5053118;28;20428;-81
2022/01/24 04:25:15;;;;;;;9.23;7.17;;;;;;;;;;5052840;28;20554;-81
2022/01/24 04:27:43;;;;;;;7.90;6.23;;;;;;;;;;5053210;28;20551;-81
2022/01/24 04:30:12;;;;;;;8.17;6.53;;;;;;;;;;5052679;28;20952;-81
2022/01/24 04:32:40;;;;;;;7.70;5.87;;;;;;;;;;5053028;28;20447;-81
2022/01/24 04:35:08;;;;;;;8.13;5.87;;;;;;;;;;5052169;28;20440;-81
2022/01/24 04:37:35;;;;;;;8.63;6.33;;;;;;;;;;5053198;28;20440;-81
2022/01/24 04:40:04;;;;;;;10.23;7.37;;;;;;;;;;5052958;28;20527;-81
2022/01/24 04:42:47;;;;;;;35.00;17.10;;;;;;;;;;5052693;28;20452;-81
2022/01/24 04:45:33;;;;;;;43.97;25.30;;;;;;;;;;5053100;28;20468;-81
2022/01/24 04:51:14;;;;;;;11.07;8.30;;;;;;;;;;4996389;28;20557;-81
2022/01/24 04:56:25;;;;;;;6.87;5.83;;;;;;;;;;5041136;28;21098;-81
2022/01/24 04:58:53;;;;;;;10.60;8.73;;;;;;;;;;5052288;28;20447;-82
2022/01/24 05:01:20;;;;;;;8.07;7.20;;;;;;;;;;5051807;28;20483;-81
2022/01/24 05:03:48;;;;;;;13.43;8.00;;;;;;;;;;5052241;28;20443;-81
2022/01/24 05:06:16;;;;;;;8.23;6.50;;;;;;;;;;5051993;28;20484;-82
2022/01/24 05:08:43;;;;;;;9.53;6.47;;;;;;;;;;5052226;28;20459;-82
2022/01/24 05:11:14;;;;;;;7.63;6.13;;;;;;;;;;5052102;28;20876;-82
2022/01/24 05:24:40;;;;;;;12.57;6.87;;;;;;;;;;5021192;28;20468;-82
2022/01/24 05:27:07;;;;;;;8.47;5.97;;;;;;;;;;5052002;28;20826;-82
2022/01/24 05:29:35;;;;;;;7.50;6.00;;;;;;;;;;5052080;28;20450;-82
2022/01/24 05:32:02;;;;;;;12.33;7.07;;;;;;;;;;5052120;28;20436;-82
2022/01/24 05:34:33;;;;;;;9.43;7.20;;;;;;;;;;5052003;28;20444;-82
2022/01/24 05:37:00;;;;;;;11.27;7.00;;;;;;;;;;5051931;28;20539;-82
2022/01/24 05:39:28;;;;;;;7.33;6.53;;;;;;;;;;5051826;28;20849;-82
2022/01/24 05:41:55;;;;;;;8.63;6.47;;;;;;;;;;5052038;28;20815;-82
2022/01/24 05:44:22;;;;;;;10.87;6.13;;;;;;;;;;5052004;28;20441;-82
2022/01/24 05:46:49;;;;;;;7.70;6.47;;;;;;;;;;5054465;28;20452;-82
2022/01/24 05:49:16;;;;;;;6.53;5.00;;;;;;;;;;5055865;28;20450;-82
2022/01/24 05:51:45;;;;;;;7.03;5.83;;;;;;;;;;5055857;28;20802;-82
2022/01/24 05:54:12;;;;;;;7.00;5.53;;;;;;;;;;5056077;28;20467;-82
2022/01/24 05:56:39;;;;;;;8.70;7.07;;;;;;;;;;5055768;28;20541;-82
2022/01/24 05:59:06;;;;;;;8.53;6.60;;;;;;;;;;5055649;28;20991;-82
2022/01/24 06:01:34;;;;;;;9.57;6.23;;;;;;;;;;5055124;28;20582;-82
2022/01/24 06:04:01;;;;;;;9.20;5.73;;;;;;;;;;5055513;28;20450;-82
2022/01/24 06:06:29;;;;;;;9.13;6.73;;;;;;;;;;5055118;28;21011;-81
2022/01/24 06:09:00;;;;;;;6.00;5.30;;;;;;;;;;5055338;28;20444;-82
2022/01/24 06:11:27;;;;;;;9.50;5.23;;;;;;;;;;5055732;28;20831;-82
2022/01/24 06:13:57;;;;;;;6.93;5.40;;;;;;;;;;5055258;28;20527;-82
2022/01/24 06:16:27;;;;;;;6.97;5.13;;;;;;;;;;5055679;28;20444;-82
2022/01/24 06:18:54;;;;;;;5.93;5.07;;;;;;;;;;5055249;28;20967;-82
2022/01/24 06:21:22;;;;;;;7.77;5.57;;;;;;;;;;5055254;28;20450;-83
2022/01/24 06:23:52;;;;;;;6.60;5.90;;;;;;;;;;5055420;28;20455;-82
2022/01/24 06:26:27;;;;;;;6.87;4.87;;;;;;;;;;5054924;28;20480;-82
2022/01/24 06:28:57;;;;;;;6.93;4.87;;;;;;;;;;5055164;28;20479;-82
2022/01/24 06:31:24;;;;;;;6.60;4.70;;;;;;;;;;5055005;28;20440;-82
2022/01/24 06:33:58;;;;;;;7.70;6.30;;;;;;;;;;5055188;28;20443;-82
2022/01/24 06:36:25;;;;;;;8.33;5.77;;;;;;;;;;5054965;28;20448;-82
2022/01/24 06:38:53;;;;;;;6.67;5.97;;;;;;;;;;5055360;28;20444;-82
2022/01/24 06:41:25;;;;;;;6.47;5.00;;;;;;;;;;5055020;28;20459;-82
2022/01/24 06:43:54;;;;;;;6.43;5.27;;;;;;;;;;5055023;28;21043;-82
2022/01/24 06:46:21;;;;;;;6.57;5.33;;;;;;;;;;5054810;28;20475;-82
2022/01/24 06:48:48;;;;;;;6.60;4.87;;;;;;;;;;5055246;28;20824;-82
2022/01/24 06:51:19;;;;;;;6.60;5.60;;;;;;;;;;5054849;28;20444;-82
2022/01/24 06:53:47;;;;;;;9.13;6.60;;;;;;;;;;5054551;28;20460;-82
2022/01/24 06:56:15;;;;;;;9.87;6.60;;;;;;;;;;5054344;28;20531;-82
2022/01/24 06:58:42;;;;;;;7.83;6.17;;;;;;;;;;5054509;28;20448;-82
2022/01/24 07:01:11;;;;;;;8.93;6.87;;;;;;;;;;5054331;28;20476;-81
2022/01/24 07:03:38;;;;;;;17.63;11.80;;;;;;;;;;5054574;28;20466;-82
2022/01/24 07:06:06;;;;;;;15.77;9.33;;;;;;;;;;5054269;28;20486;-82
2022/01/24 07:08:33;;;;;;;16.13;10.70;;;;;;;;;;5054362;28;20451;-82
2022/01/24 07:11:00;;;;;;;15.50;10.97;;;;;;;;;;5054635;28;20827;-82
2022/01/24 07:13:27;;;;;;;17.73;9.63;;;;;;;;;;5054278;28;20440;-83
2022/01/24 07:15:59;;;;;;;23.13;13.67;;;;;;;;;;5054199;28;20941;-82
2022/01/24 07:21:13;;;;;;;14.83;9.10;;;;;;;;;;5054286;28;20416;-82
2022/01/24 07:23:40;;;;;;;12.43;9.20;;;;;;;;;;5054406;28;20446;-82
2022/01/24 07:26:07;;;;;;;19.77;12.63;;;;;;;;;;5053926;28;20475;-82
2022/01/24 07:28:34;;;;;;;33.00;14.73;;;;;;;;;;5053795;28;20444;-82
2022/01/24 07:31:02;;;;;;;14.27;9.40;;;;;;;;;;5054177;28;20483;-83
2022/01/24 07:33:30;;;;;;;12.47;8.47;;;;;;;;;;5053771;28;20444;-82
2022/01/24 07:35:57;;;;;;;13.93;10.20;;;;;;;;;;5053767;28;20445;-83
2022/01/24 07:38:28;;;;;;;10.47;7.77;;;;;;;;;;5054000;28;20531;-82
2022/01/24 07:40:56;;;;;;;11.47;8.73;;;;;;;;;;5053660;28;20495;-83
2022/01/24 07:43:24;;;;;;;8.63;7.30;;;;;;;;;;5053543;28;20957;-83
2022/01/24 07:45:54;;;;;;;14.13;10.00;;;;;;;;;;5053380;28;20484;-83
2022/01/24 07:48:21;;;;;;;12.43;9.20;;;;;;;;;;5053550;28;20535;-83
2022/01/24 07:50:59;;;;;;;9.10;7.07;;;;;;;;;;5053478;28;20448;-83
2022/01/24 07:53:27;;;;;;;9.80;8.03;;;;;;;;;;5053948;28;20433;-83
2022/01/24 07:56:04;;;;;;;10.50;7.83;;;;;;;;;;5053444;28;20899;-83
2022/01/24 07:58:40;;;;;;;14.77;10.90;;;;;;;;;;5053703;28;20448;-84
2022/01/24 08:01:14;;;;;;;9.43;6.97;;;;;;;;;;5052941;28;20467;-85
2022/01/24 08:03:42;;;;;;;11.87;9.40;;;;;;;;;;5053224;28;20992;-84
2022/01/24 08:06:11;;;;;;;8.20;6.73;;;;;;;;;;5053549;28;20998;-84
2022/01/24 08:08:44;;;;;;;8.67;7.43;;;;;;;;;;5052570;28;20450;-85
2022/01/24 08:11:18;;;;;;;8.50;6.33;;;;;;;;;;5053493;28;20446;-86
2022/01/24 08:13:45;;;;;;;11.50;7.87;;;;;;;;;;5053357;28;20963;-86
2022/01/24 08:16:13;;;;;;;10.10;8.60;;;;;;;;;;5053786;28;20440;-86
2022/01/24 08:18:52;;;;;;;9.10;6.43;;;;;;;;;;5053496;28;20455;-87
2022/01/24 08:21:27;;;;;;;9.70;7.50;;;;;;;;;;5053420;28;20444;-88
2022/01/24 08:23:57;;;;;;;11.13;6.87;;;;;;;;;;5053377;28;20455;-88
2022/01/24 08:26:30;;;;;;;11.33;7.50;;;;;;;;;;5053430;28;20553;-88
2022/01/24 08:28:57;;;;;;;10.80;7.50;;;;;;;;;;5053758;28;20480;-89
2022/01/24 08:31:28;;;;;;;9.80;7.23;;;;;;;;;;5053770;28;20983;-89
2022/01/24 08:34:07;;;;;;;10.80;7.03;;;;;;;;;;5053653;28;20444;-89
2022/01/24 08:36:39;;;;;;;12.47;8.27;;;;;;;;;;5053359;28;21016;-89
2022/01/24 08:39:09;;;;;;;13.10;7.90;;;;;;;;;;5054635;28;20444;-89
2022/01/24 08:41:48;;;;;;;12.53;7.97;;;;;;;;;;5054225;28;20433;-90
2022/01/24 08:44:31;;;;;;;7.60;6.67;;;;;;;;;;5053989;28;20452;-91
2022/01/24 08:47:05;;;;;;;9.07;7.20;;;;;;;;;;5053447;28;20921;-89
2022/01/24 08:49:38;;;;;;;10.70;7.50;;;;;;;;;;5053679;28;20969;-90
2022/01/24 08:52:10;;;;;;;8.67;6.53;;;;;;;;;;5053473;28;20983;-90
2022/01/24 08:54:37;;;;;;;7.53;6.07;;;;;;;;;;5053925;28;20444;-89
2022/01/24 08:57:07;;;;;;;9.43;7.10;;;;;;;;;;5053707;28;20883;-91
2022/01/24 08:59:35;;;;;;;7.43;6.27;;;;;;;;;;5053291;28;20455;-92
2022/01/24 09:02:06;;;;;;;11.07;7.33;;;;;;;;;;5052718;28;20221;-91
2022/01/24 09:04:34;;;;;;;8.33;7.43;;;;;;;;;;5053479;28;20810;-90
2022/01/24 09:07:04;;;;;;;9.63;6.83;;;;;;;;;;5053545;28;20217;-92
2022/01/24 09:09:38;;;;;;;9.27;7.30;;;;;;;;;;5052936;28;20472;-91
2022/01/24 09:12:12;;;;;;;12.07;7.00;;;;;;;;;;5053243;28;20509;-93
2022/01/24 09:14:40;;;;;;;7.33;6.53;;;;;;;;;;5053515;28;20201;-93
2022/01/24 09:17:07;;;;;;;8.47;7.10;;;;;;;;;;5053459;28;20476;-92
2022/01/24 09:19:47;;;;;;;8.83;7.87;;;;;;;;;;5053753;28;20201;-92
2022/01/24 09:22:14;;;;;;;9.50;7.67;;;;;;;;;;5053303;28;20233;-93
2022/01/24 09:24:46;;;;;;;11.63;7.10;;;;;;;;;;5052951;28;20186;-93
2022/01/24 09:27:19;;;;;;;7.57;6.77;;;;;;;;;;5052673;28;20217;-92
2022/01/24 09:29:56;;;;;;;10.63;7.67;;;;;;;;;;5052619;28;20527;-92
2022/01/24 09:32:23;;;;;;;8.10;6.47;;;;;;;;;;5052931;28;20201;-92
2022/01/24 09:34:50;;;;;;;7.50;5.97;;;;;;;;;;5052590;28;20956;-94
2022/01/24 09:37:18;;;;;;;8.47;6.77;;;;;;;;;;5052557;28;20440;-92
2022/01/24 09:39:49;;;;;;;10.60;7.83;;;;;;;;;;5052554;28;20209;-92
2022/01/24 09:42:17;;;;;;;11.97;8.13;;;;;;;;;;5053023;28;20193;-93
2022/01/24 09:44:45;;;;;;;12.13;8.87;;;;;;;;;;5052754;28;20230;-93
2022/01/24 09:47:19;;;;;;;14.03;9.67;;;;;;;;;;5053593;28;20260;-92
2022/01/24 09:49:47;;;;;;;8.60;7.67;;;;;;;;;;5053253;28;20194;-92
2022/01/24 09:52:19;;;;;;;6.37;5.10;;;;;;;;;;5053323;28;20519;-92
2022/01/24 09:54:51;;;;;;;8.50;7.10;;;;;;;;;;5054110;28;20429;-92
2022/01/24 09:57:18;;;;;;;8.33;7.17;;;;;;;;;;5053567;28;20440;-92
2022/01/24 09:59:49;;;;;;;11.83;7.97;;;;;;;;;;5052898;28;20456;-92
2022/01/24 10:02:16;;;;;;;9.17;6.23;;;;;;;;;;5052483;28;20437;-92
2022/01/24 10:04:43;;;;;;;11.57;6.70;;;;;;;;;;5052728;28;20949;-92
2022/01/24 10:07:15;;;;;;;8.53;7.10;;;;;;;;;;5052544;28;20483;-92
2022/01/24 10:09:48;;;;;;;9.20;7.50;;;;;;;;;;5053370;28;20500;-91
2022/01/24 10:12:35;;;;;;;9.53;6.60;;;;;;;;;;5052700;28;20441;-92
2022/01/24 10:18:27;;;;;;;7.63;6.20;;;;;;;;;;5052935;28;20920;-92
2022/01/24 10:20:58;;;;;;;8.97;6.27;;;;;;;;;;5052642;28;20523;-90
2022/01/24 10:23:27;;;;;;;7.07;5.80;;;;;;;;;;5052751;28;20800;-92
2022/01/24 10:26:04;;;;;;;8.63;6.73;;;;;;;;;;5052363;28;21015;-90
2022/01/24 10:28:34;;;;;;;10.03;7.27;;;;;;;;;;5052966;28;20774;-91
2022/01/24 10:31:10;;;;;;;8.20;5.77;;;;;;;;;;5052479;28;20190;-91
2022/01/24 10:34:33;;;;;;;8.17;6.77;;;;;;;;;;5056257;28;20459;-91
2022/01/24 10:37:01;;;;;;;5.90;5.13;;;;;;;;;;5014760;28;20206;-91
2022/01/24 10:39:32;;;;;;;8.67;6.93;;;;;;;;;;5054464;28;20444;-92
2022/01/24 10:42:52;;;;;;;7.47;6.33;;;;;;;;;;5056107;28;20305;-91
2022/01/24 10:45:25;;;;;;;7.93;5.90;;;;;;;;;;5055593;28;20233;-92
2022/01/24 10:47:55;;;;;;;7.00;6.23;;;;;;;;;;5056226;28;20210;-92
2022/01/24 10:50:25;;;;;;;9.27;6.50;;;;;;;;;;5055496;28;20194;-92
2022/01/24 10:53:25;;;;;;;8.50;6.43;;;;;;;;;;5055470;28;20202;-92
2022/01/24 10:55:52;;;;;;;10.00;6.33;;;;;;;;;;5056013;28;20200;-91
2022/01/24 10:58:20;;;;;;;8.60;6.77;;;;;;;;;;5056454;28;20197;-93
2022/01/24 11:01:08;;;;;;;10.10;6.07;;;;;;;;;;5055765;28;20703;-91
2022/01/24 11:03:41;;;;;;;8.13;6.83;;;;;;;;;;5055391;28;20276;-92
2022/01/24 11:06:27;;;;;;;7.23;6.40;;;;;;;;;;5056077;28;20631;-92
2022/01/24 11:09:41;;;;;;;6.20;5.60;;;;;;;;;;5055656;28;20252;-91
2022/01/24 11:12:24;;;;;;;6.03;5.37;;;;;;;;;;5055341;28;20201;-91
2022/01/24 11:14:53;;;;;;;8.87;7.50;;;;;;;;;;5055170;28;20281;-92
2022/01/24 11:17:35;;;;;;;8.50;7.17;;;;;;;;;;5056469;28;20194;-93
2022/01/24 11:20:03;;;;;;;7.97;5.87;;;;;;;;;;5055691;28;20193;-91
2022/01/24 11:23:01;;;;;;;9.20;7.27;;;;;;;;;;5055227;28;20198;-92
2022/01/24 11:25:36;;;;;;;7.50;6.33;;;;;;;;;;5055219;28;20206;-92
2022/01/24 11:28:10;;;;;;;12.80;8.97;;;;;;;;;;5054763;28;20217;-91
2022/01/24 11:30:42;;;;;;;7.27;6.10;;;;;;;;;;5055053;28;20277;-91
2022/01/24 11:33:13;;;;;;;8.30;6.47;;;;;;;;;;5055114;28;20715;-91
2022/01/24 11:35:44;;;;;;;6.13;5.50;;;;;;;;;;5054924;28;20293;-90
2022/01/24 11:38:31;;;;;;;8.57;6.70;;;;;;;;;;5054954;28;20201;-89
2022/01/24 11:41:21;;;;;;;6.70;5.67;;;;;;;;;;5055344;28;20679;-92
2022/01/24 11:43:54;;;;;;;7.47;5.93;;;;;;;;;;5053856;28;20206;-91
2022/01/24 11:46:37;;;;;;;7.87;6.57;;;;;;;;;;5055162;28;20218;-92
2022/01/24 11:49:07;;;;;;;8.80;6.90;;;;;;;;;;5054327;28;20205;-91
2022/01/24 11:51:37;;;;;;;7.77;6.23;;;;;;;;;;5054922;28;20204;-92
2022/01/24 11:54:32;;;;;;;9.40;7.10;;;;;;;;;;5054783;28;20224;-93
2022/01/24 11:57:23;;;;;;;7.47;5.80;;;;;;;;;;5054490;28;20208;-91
2022/01/24 12:00:18;;;;;;;8.63;6.30;;;;;;;;;;5054128;28;20241;-91
2022/01/24 12:02:50;;;;;;;7.93;5.83;;;;;;;;;;5054324;28;20285;-92
2022/01/24 12:05:46;;;;;;;10.17;7.53;;;;;;;;;;5054237;28;20292;-90
2022/01/24 12:08:33;;;;;;;7.07;5.70;;;;;;;;;;5054253;28;20224;-90
2022/01/24 12:11:19;;;;;;;8.13;6.63;;;;;;;;;;5054449;28;20182;-92
2022/01/24 12:13:47;;;;;;;9.30;7.47;;;;;;;;;;5055061;28;20277;-90
2022/01/24 12:16:15;;;;;;;7.23;6.50;;;;;;;;;;5057058;28;20289;-92
2022/01/24 12:19:01;;;;;;;7.67;6.33;;;;;;;;;;5055042;28;20567;-92
2022/01/24 12:21:32;;;;;;;7.53;6.07;;;;;;;;;;5054011;28;20200;-93
2022/01/24 12:24:01;;;;;;;8.13;6.13;;;;;;;;;;5054066;28;20248;-92
2022/01/24 12:26:51;;;;;;;7.57;6.77;;;;;;;;;;5053792;28;20340;-92
2022/01/24 12:29:24;;;;;;;8.77;6.43;;;;;;;;;;5054184;28;20198;-93
2022/01/24 12:31:59;;;;;;;6.93;6.23;;;;;;;;;;5053957;28;20628;-92
2022/01/24 12:34:39;;;;;;;7.40;6.10;;;;;;;;;;5054192;28;20193;-92
2022/01/24 12:37:27;;;;;;;7.80;5.90;;;;;;;;;;5054130;28;20188;-92
2022/01/24 12:40:02;;;;;;;6.53;5.67;;;;;;;;;;5053841;28;20652;-91
2022/01/24 12:42:49;;;;;;;6.27;5.63;;;;;;;;;;5053823;28;20185;-92
2022/01/24 12:48:21;;;;;;;8.70;6.40;;;;;;;;;;5054057;28;20205;-92
2022/01/24 12:50:54;;;;;;;9.27;6.00;;;;;;;;;;5053391;28;20205;-91
2022/01/24 12:53:23;;;;;;;6.60;4.47;;;;;;;;;;5053449;28;20277;-91
2022/01/24 12:56:01;;;;;;;9.43;6.00;;;;;;;;;;5053094;28;20197;-92
2022/01/24 12:58:42;;;;;;;7.43;6.17;;;;;;;;;;5053182;28;20217;-89
2022/01/24 13:01:22;;;;;;;9.50;6.00;;;;;;;;;;5053386;28;20229;-91
2022/01/24 13:03:51;;;;;;;7.47;6.17;;;;;;;;;;5053328;28;20219;-92
2022/01/24 13:06:21;;;;;;;5.77;4.97;;;;;;;;;;5053705;28;20629;-91
2022/01/24 13:09:00;;;;;;;7.17;6.47;;;;;;;;;;5053342;28;20233;-92
2022/01/24 13:11:29;;;;;;;6.47;5.13;;;;;;;;;;5053170;28;20185;-92
2022/01/24 13:14:13;;;;;;;7.27;5.70;;;;;;;;;;5053056;28;20701;-92
2022/01/24 13:22:28;;;;;;;6.93;5.50;;;;;;;;;;5053111;28;20177;-91
2022/01/24 13:25:14;;;;;;;7.30;6.47;;;;;;;;;;5053133;28;20194;-91
2022/01/24 13:27:43;;;;;;;5.77;5.03;;;;;;;;;;5053006;28;20309;-90
2022/01/24 13:30:23;;;;;;;5.87;5.27;;;;;;;;;;5053057;28;20205;-92
2022/01/24 13:32:52;;;;;;;6.60;4.33;;;;;;;;;;5053863;28;20232;-90
2022/01/24 13:35:26;;;;;;;5.70;4.73;;;;;;;;;;5052910;28;20201;-92
2022/01/24 13:37:57;;;;;;;7.90;4.73;;;;;;;;;;5052972;28;20193;-91
2022/01/24 13:40:55;;;;;;;6.30;4.80;;;;;;;;;;5052725;28;20251;-90
2022/01/24 13:43:36;;;;;;;5.53;4.47;;;;;;;;;;5052352;28;20224;-91
2022/01/24 13:46:18;;;;;;;8.53;4.90;;;;;;;;;;5052874;28;20630;-91
2022/01/24 13:48:47;;;;;;;7.03;4.77;;;;;;;;;;5052612;28;20351;-90
2022/01/24 13:51:22;;;;;;;4.37;3.90;;;;;;;;;;5052579;28;20205;-90
2022/01/24 13:54:07;;;;;;;6.67;5.63;;;;;;;;;;5052521;28;20216;-90
2022/01/24 13:56:52;;;;;;;5.30;4.80;;;;;;;;;;5052879;28;20224;-91
2022/01/24 13:59:24;;;;;;;6.37;4.87;;;;;;;;;;5052451;28;20198;-91
2022/01/24 14:02:09;;;;;;;7.73;5.70;;;;;;;;;;5052334;28;20617;-90
2022/01/24 14:04:41;;;;;;;5.27;4.77;;;;;;;;;;5052739;28;20215;-90
2022/01/24 14:07:10;;;;;;;7.57;4.87;;;;;;;;;;5053979;28;20274;-91
2022/01/24 14:09:44;;;;;;;9.03;6.00;;;;;;;;;;5056579;28;20194;-91
2022/01/24 14:12:17;;;;;;;8.60;5.97;;;;;;;;;;5056454;28;20240;-91
2022/01/24 14:14:53;;;;;;;6.70;5.43;;;;;;;;;;5056384;28;20190;-91
2022/01/24 14:20:08;;;;;;;8.10;6.33;;;;;;;;;;5047443;28;20248;-91
2022/01/24 14:22:48;;;;;;;6.90;4.97;;;;;;;;;;5056574;28;20182;-91
2022/01/24 14:25:32;;;;;;;8.03;5.60;;;;;;;;;;5056705;28;20605;-90
2022/01/24 14:28:12;;;;;;;6.13;4.90;;;;;;;;;;5056185;28;20229;-91
2022/01/24 14:30:43;;;;;;;5.53;4.47;;;;;;;;;;5056057;28;20247;-91
2022/01/24 14:33:12;;;;;;;10.27;5.73;;;;;;;;;;5055949;28;20194;-91
2022/01/24 14:35:56;;;;;;;7.07;5.47;;;;;;;;;;5056250;28;20629;-91
2022/01/24 14:38:38;;;;;;;6.57;4.93;;;;;;;;;;5054540;28;20670;-91
2022/01/24 14:41:15;;;;;;;8.67;5.70;;;;;;;;;;5055908;28;20679;-91
2022/01/24 14:46:43;;;;;;;4.90;4.40;;;;;;;;;;5055614;28;20181;-90
2022/01/24 14:49:13;;;;;;;18.90;12.63;;;;;;;;;;5055873;28;20272;-93
2022/01/24 14:51:42;;;;;;;14.33;9.67;;;;;;;;;;5055771;28;20208;-92
2022/01/24 14:54:14;;;;;;;7.43;5.30;;;;;;;;;;5056280;28;20196;-90
2022/01/24 14:56:43;;;;;;;7.63;5.67;;;;;;;;;;5056249;28;20186;-88
2022/01/24 14:59:12;;;;;;;6.73;5.73;;;;;;;;;;5056111;28;20241;-89
2022/01/24 15:01:42;;;;;;;5.70;4.87;;;;;;;;;;5055928;28;20248;-88
2022/01/24 15:04:10;;;;;;;6.87;5.37;;;;;;;;;;5055209;28;20244;-89
2022/01/24 15:06:37;;;;;;;7.10;5.23;;;;;;;;;;5055610;28;20277;-87
2022/01/24 15:09:12;;;;;;;6.90;6.20;;;;;;;;;;5055197;28;20511;-87
2022/01/24 15:11:43;;;;;;;7.00;5.93;;;;;;;;;;5055080;28;20440;-86
2022/01/24 15:14:17;;;;;;;6.20;5.60;;;;;;;;;;5054720;28;20451;-86
2022/01/24 15:16:55;;;;;;;7.13;5.13;;;;;;;;;;5054801;28;20439;-86
2022/01/24 15:27:51;;;;;;;6.17;4.70;;;;;;;;;;5054639;28;20482;-84
2022/01/24 15:30:24;;;;;;;9.60;7.93;;;;;;;;;;5054045;28;20475;-85
2022/01/24 15:33:01;;;;;;;9.17;7.93;;;;;;;;;;5053852;28;20547;-84
2022/01/24 15:35:28;;;;;;;7.70;6.87;;;;;;;;;;5053966;28;20959;-84
2022/01/24 15:37:59;;;;;;;10.80;8.43;;;;;;;;;;5053799;28;20501;-84
2022/01/24 15:40:28;;;;;;;11.87;6.53;;;;;;;;;;5054231;28;20433;-84
2022/01/24 15:43:00;;;;;;;6.23;5.13;;;;;;;;;;5054094;28;20471;-84
2022/01/24 15:45:36;;;;;;;9.63;7.37;;;;;;;;;;5053980;28;20832;-83
2022/01/24 15:48:04;;;;;;;7.67;6.87;;;;;;;;;;5053536;28;20464;-84
2022/01/24 15:50:33;;;;;;;6.27;4.73;;;;;;;;;;5053615;28;20602;-83
2022/01/24 15:53:02;;;;;;;10.73;5.73;;;;;;;;;;5053566;28;20448;-83
2022/01/24 15:55:31;;;;;;;12.63;8.50;;;;;;;;;;5053551;28;20448;-84
2022/01/24 15:57:59;;;;;;;9.00;6.47;;;;;;;;;;5053395;28;20440;-83
2022/01/24 16:00:28;;;;;;;9.63;5.93;;;;;;;;;;5053277;28;20479;-83
2022/01/24 16:02:58;;;;;;;8.27;6.77;;;;;;;;;;5053567;28;20439;-82
2022/01/24 16:05:26;;;;;;;7.83;4.87;;;;;;;;;;5053447;28;20490;-82
2022/01/24 16:07:55;;;;;;;8.47;6.30;;;;;;;;;;5053406;28;20563;-83
2022/01/24 16:10:25;;;;;;;8.20;6.20;;;;;;;;;;5053208;28;20448;-83
2022/01/24 16:12:55;;;;;;;6.27;5.03;;;;;;;;;;5053380;28;20448;-83
2022/01/24 16:15:24;;;;;;;6.10;4.10;;;;;;;;;;5053113;28;20451;-83
2022/01/24 16:17:52;;;;;;;7.23;5.60;;;;;;;;;;5053373;28;20824;-83
2022/01/24 16:20:30;;;;;;;6.70;5.07;;;;;;;;;;5053189;28;20448;-82
2022/01/24 16:23:18;;;;;;;6.33;5.73;;;;;;;;;;5052822;28;20985;-82
2022/01/24 16:26:18;;;;;;;8.20;6.07;;;;;;;;;;5052786;28;20805;-82
2022/01/24 16:28:55;;;;;;;8.50;6.43;;;;;;;;;;5040744;28;20877;-82
2022/01/24 16:31:42;;;;;;;10.03;6.37;;;;;;;;;;5052703;28;20900;-82
2022/01/24 16:34:15;;;;;;;8.43;5.40;;;;;;;;;;5052694;28;20436;-82
2022/01/24 16:36:45;;;;;;;6.57;5.80;;;;;;;;;;5052782;28;20527;-82
2022/01/24 16:39:16;;;;;;;7.87;5.87;;;;;;;;;;5052802;28;20866;-82
2022/01/24 16:41:50;;;;;;;6.57;5.40;;;;;;;;;;5052587;28;20483;-83
2022/01/24 16:44:33;;;;;;;6.40;5.57;;;;;;;;;;5052567;28;20432;-82
2022/01/24 16:47:06;;;;;;;5.73;4.60;;;;;;;;;;5052969;28;20502;-82
2022/01/24 16:49:35;;;;;;;7.20;5.73;;;;;;;;;;5052478;28;20579;-83
2022/01/24 16:52:05;;;;;;;6.40;5.13;;;;;;;;;;5061780;28;20465;-82
2022/01/24 16:54:33;;;;;;;5.73;5.10;;;;;;;;;;5072160;28;20451;-83